Time;durP1;ratioP1;P1;durP2;ratioP2;P2;SDS_P1;SDS_P2;PMS_P1;PMS_P2;Temp;Humidity;BMP_temperature;BMP_pressure;BME280_temperature;BME280_humidity;BME280_pressure;Samples;Min_cycle;Max_cycle;Signal;HPM_P1;HPM_P2
2022/03/19 00:01:53;;;;;;;99.63;40.50;;;5.00;99.90;;;;;;5016216;28;20041;-38
2022/03/19 00:04:19;;;;;;;95.05;39.35;;;5.10;99.90;;;;;;5016122;28;20036;-37
2022/03/19 00:06:47;;;;;;;99.55;40.33;;;5.10;99.90;;;;;;5020478;28;20025;-37
2022/03/19 00:09:13;;;;;;;93.45;39.22;;;5.00;99.90;;;;;;5019261;28;20075;-38
2022/03/19 00:11:40;;;;;;;92.28;39.15;;;5.00;99.90;;;;;;5017827;28;20052;-37
2022/03/19 00:14:06;;;;;;;99.30;39.80;;;4.90;99.90;;;;;;5018981;28;20056;-37
2022/03/19 00:16:31;;;;;;;99.78;40.20;;;4.90;99.90;;;;;;5019317;28;20109;-36
2022/03/19 00:18:57;;;;;;;91.85;39.20;;;5.00;99.90;;;;;;5015940;28;20084;-35
2022/03/19 00:21:23;;;;;;;92.10;39.22;;;4.90;99.90;;;;;;5015586;28;20527;-36
2022/03/19 00:23:48;;;;;;;94.43;40.15;;;4.80;99.90;;;;;;5017089;28;20036;-37
2022/03/19 00:26:15;;;;;;;93.85;37.83;;;4.80;99.90;;;;;;5016054;28;20041;-37
2022/03/19 00:28:41;;;;;;;88.18;37.08;;;4.90;99.90;;;;;;5016974;28;20156;-39
2022/03/19 00:31:07;;;;;;;92.60;37.90;;;4.80;99.90;;;;;;5010919;28;20046;-36
2022/03/19 00:33:33;;;;;;;93.40;39.53;;;4.80;99.90;;;;;;5017236;28;20500;-37
2022/03/19 00:35:59;;;;;;;91.10;38.25;;;4.80;99.90;;;;;;5015961;28;20025;-36
2022/03/19 00:38:25;;;;;;;93.43;39.50;;;4.80;99.90;;;;;;5016102;28;20044;-37
2022/03/19 00:40:51;;;;;;;95.30;39.05;;;4.70;99.90;;;;;;5016050;28;20037;-37
2022/03/19 00:43:19;;;;;;;91.63;39.92;;;4.70;99.90;;;;;;5014550;28;20040;-37
2022/03/19 00:45:48;;;;;;;100.32;40.05;;;4.70;99.90;;;;;;5013426;28;20038;-38
2022/03/19 00:48:15;;;;;;;89.70;36.40;;;4.80;99.90;;;;;;5017533;28;20425;-40
2022/03/19 00:50:42;;;;;;;93.93;36.40;;;4.80;99.90;;;;;;4998012;28;20029;-37
2022/03/19 00:53:07;;;;;;;89.45;35.60;;;4.70;99.90;;;;;;5016257;28;20040;-38
2022/03/19 00:55:33;;;;;;;83.28;36.47;;;4.70;99.90;;;;;;5024079;28;20033;-39
2022/03/19 00:57:59;;;;;;;85.60;35.08;;;4.70;99.90;;;;;;5017207;28;20700;-36
2022/03/19 01:00:26;;;;;;;85.93;35.05;;;4.60;99.90;;;;;;5017571;28;20040;-37
2022/03/19 01:02:53;;;;;;;75.45;33.00;;;4.50;99.90;;;;;;5016135;28;20033;-36
2022/03/19 01:05:19;;;;;;;87.20;35.80;;;4.40;99.90;;;;;;5019432;28;20029;-38
2022/03/19 01:07:51;;;;;;;83.97;36.10;;;4.30;99.90;;;;;;5017886;28;20536;-37
2022/03/19 01:10:20;;;;;;;79.75;33.75;;;4.20;99.90;;;;;;4998067;28;20033;-37
2022/03/19 01:12:47;;;;;;;74.20;32.78;;;4.10;99.90;;;;;;5016408;28;20037;-39
2022/03/19 01:15:12;;;;;;;87.25;34.28;;;4.00;99.90;;;;;;5012378;28;20025;-39
2022/03/19 01:17:39;;;;;;;77.18;33.10;;;3.80;99.90;;;;;;5017116;28;20047;-36
2022/03/19 01:20:06;;;;;;;71.90;30.38;;;3.90;99.90;;;;;;5014670;28;20034;-39
2022/03/19 01:22:33;;;;;;;79.13;31.33;;;3.80;99.90;;;;;;4997952;28;20056;-38
2022/03/19 01:25:03;;;;;;;75.57;31.20;;;3.70;99.90;;;;;;5014483;28;20068;-37
2022/03/19 01:27:30;;;;;;;62.78;27.83;;;3.60;99.90;;;;;;5012691;28;20033;-38
2022/03/19 01:29:55;;;;;;;70.65;30.83;;;3.50;99.90;;;;;;5016601;28;20059;-37
2022/03/19 01:32:21;;;;;;;73.03;29.77;;;3.50;99.90;;;;;;5014128;28;20033;-37
2022/03/19 01:34:47;;;;;;;66.35;30.08;;;3.50;99.90;;;;;;5009590;28;20140;-38
2022/03/19 01:37:12;;;;;;;73.47;31.60;;;3.30;99.90;;;;;;5012969;28;20027;-37
2022/03/19 01:39:38;;;;;;;75.50;32.60;;;3.20;99.90;;;;;;5016409;28;20049;-37
2022/03/19 01:42:04;;;;;;;70.47;30.20;;;3.20;99.90;;;;;;5013714;28;20038;-38
2022/03/19 01:44:30;;;;;;;70.75;30.70;;;3.20;99.90;;;;;;5013849;28;20112;-37
2022/03/19 01:47:01;;;;;;;73.25;31.00;;;3.20;99.90;;;;;;5013699;28;20029;-39
2022/03/19 01:49:27;;;;;;;80.47;32.30;;;3.30;99.90;;;;;;5017109;28;20461;-36
2022/03/19 01:51:53;;;;;;;79.57;34.92;;;3.40;99.90;;;;;;5019464;28;20587;-38
2022/03/19 01:54:40;;;;;;;77.53;32.60;;;3.30;99.90;;;;;;5018466;28;20044;-35
2022/03/19 01:57:07;;;;;;;77.88;31.88;;;3.40;99.90;;;;;;5003917;28;20029;-36
2022/03/19 01:59:35;;;;;;;68.72;30.23;;;3.50;99.90;;;;;;5020488;28;20109;-38
2022/03/19 02:02:06;;;;;;;67.68;32.55;;;3.60;99.90;;;;;;5021032;28;20038;-33
2022/03/19 02:04:34;;;;;;;64.95;29.55;;;3.60;99.90;;;;;;5015876;28;20690;-33
2022/03/19 02:07:00;;;;;;;68.88;29.05;;;3.60;99.90;;;;;;5022278;28;20032;-33
2022/03/19 02:09:26;;;;;;;74.20;30.52;;;3.60;99.90;;;;;;5016394;28;20033;-36
2022/03/19 02:11:51;;;;;;;68.15;29.08;;;3.70;99.90;;;;;;5018683;28;20406;-33
2022/03/19 02:14:18;;;;;;;61.72;27.65;;;3.80;99.90;;;;;;5019160;28;20033;-33
2022/03/19 02:16:44;;;;;;;66.63;29.13;;;3.70;99.90;;;;;;5018478;28;20043;-34
2022/03/19 02:19:10;;;;;;;64.28;28.98;;;3.70;99.90;;;;;;5018812;28;20119;-34
2022/03/19 02:21:45;;;;;;;62.65;28.77;;;3.80;99.90;;;;;;5016900;28;20104;-33
2022/03/19 02:26:56;;;;;;;56.38;25.20;;;3.70;99.90;;;;;;5018133;28;20084;-33
2022/03/19 02:29:22;;;;;;;56.45;24.75;;;3.70;99.90;;;;;;5017560;28;20029;-34
2022/03/19 02:31:51;;;;;;;57.42;27.92;;;3.70;99.90;;;;;;5020986;28;20043;-33
2022/03/19 02:34:17;;;;;;;48.15;23.55;;;3.70;99.90;;;;;;5015667;28;20039;-34
2022/03/19 02:36:43;;;;;;;58.85;26.05;;;3.60;99.90;;;;;;5019490;28;20782;-33
2022/03/19 02:39:16;;;;;;;51.20;24.50;;;3.60;99.90;;;;;;5017544;28;20435;-34
2022/03/19 02:41:43;;;;;;;47.47;24.58;;;3.50;99.90;;;;;;5018950;28;20116;-33
2022/03/19 02:44:10;;;;;;;56.97;25.88;;;3.30;99.90;;;;;;5017324;28;20620;-33
2022/03/19 02:46:48;;;;;;;54.40;23.80;;;3.20;99.90;;;;;;5019236;28;20123;-33
2022/03/19 02:49:15;;;;;;;49.60;24.27;;;3.00;99.90;;;;;;5018297;28;20021;-33
2022/03/19 02:51:42;;;;;;;58.97;24.35;;;2.90;99.90;;;;;;5020194;28;20026;-33
2022/03/19 02:54:09;;;;;;;58.50;24.98;;;2.80;99.90;;;;;;5018807;28;21979;-34
2022/03/19 02:56:37;;;;;;;61.00;24.70;;;2.90;99.90;;;;;;5015953;28;20025;-33
2022/03/19 02:59:07;;;;;;;50.30;23.23;;;2.90;99.90;;;;;;5016789;28;20034;-33
2022/03/19 03:01:33;;;;;;;53.65;23.08;;;2.70;99.90;;;;;;4999831;28;20045;-33
2022/03/19 03:03:59;;;;;;;53.97;25.52;;;2.60;99.90;;;;;;5016283;28;20036;-34
2022/03/19 03:06:24;;;;;;;54.40;24.48;;;2.60;99.90;;;;;;5018355;28;20029;-35
2022/03/19 03:08:50;;;;;;;55.83;26.08;;;2.70;99.90;;;;;;5017147;28;20032;-33
2022/03/19 03:11:17;;;;;;;62.47;26.33;;;2.90;99.90;;;;;;4999219;28;20026;-33
2022/03/19 03:13:43;;;;;;;54.80;25.98;;;2.90;99.90;;;;;;5015943;28;20042;-34
2022/03/19 03:16:08;;;;;;;59.70;25.05;;;2.90;99.90;;;;;;5015921;28;20030;-34
2022/03/19 03:18:34;;;;;;;55.58;24.88;;;3.00;99.90;;;;;;5013751;28;20073;-34
2022/03/19 03:21:00;;;;;;;49.35;23.35;;;3.10;99.90;;;;;;5013232;28;20041;-33
2022/03/19 03:23:26;;;;;;;53.78;23.58;;;3.10;99.90;;;;;;5014482;28;20044;-34
2022/03/19 03:25:52;;;;;;;56.45;24.88;;;3.10;99.90;;;;;;5013666;28;20420;-33
2022/03/19 03:28:18;;;;;;;50.97;24.17;;;3.10;99.90;;;;;;5017286;28;20031;-34
2022/03/19 03:30:43;;;;;;;48.95;22.98;;;3.10;99.90;;;;;;5017784;28;20043;-33
2022/03/19 03:33:09;;;;;;;51.50;22.23;;;3.20;99.90;;;;;;5015955;28;20030;-33
2022/03/19 03:35:35;;;;;;;49.63;21.33;;;3.20;99.90;;;;;;5015943;28;20044;-33
2022/03/19 03:38:01;;;;;;;55.60;22.42;;;3.20;99.90;;;;;;5017899;28;20437;-33
2022/03/19 03:40:26;;;;;;;41.25;20.08;;;3.10;99.90;;;;;;5015936;28;20037;-33
2022/03/19 03:42:54;;;;;;;48.80;23.63;;;3.10;99.90;;;;;;5017787;28;20114;-33
2022/03/19 03:45:20;;;;;;;44.80;20.92;;;3.00;99.90;;;;;;5015786;28;21772;-33
2022/03/19 03:47:46;;;;;;;45.10;20.95;;;3.00;99.90;;;;;;5016577;28;20037;-32
2022/03/19 03:50:12;;;;;;;47.90;22.25;;;2.90;99.90;;;;;;5016206;28;20450;-34
2022/03/19 03:52:38;;;;;;;47.35;22.40;;;3.00;99.90;;;;;;5018971;28;20044;-33
2022/03/19 03:55:06;;;;;;;51.65;23.63;;;2.80;99.90;;;;;;5021473;28;20087;-33
2022/03/19 03:57:34;;;;;;;46.40;22.75;;;2.70;99.90;;;;;;5015827;28;20026;-33
2022/03/19 04:00:01;;;;;;;47.05;22.63;;;2.70;99.90;;;;;;5015992;28;20041;-33
2022/03/19 04:02:27;;;;;;;52.50;23.07;;;2.60;99.90;;;;;;5015719;28;20052;-33
2022/03/19 04:04:53;;;;;;;50.83;23.65;;;2.60;99.90;;;;;;5015341;28;20545;-33
2022/03/19 04:07:18;;;;;;;46.67;21.58;;;2.60;99.90;;;;;;5016251;28;20073;-33
2022/03/19 04:09:44;;;;;;;45.75;21.70;;;2.60;99.90;;;;;;5015382;28;20029;-33
2022/03/19 04:12:10;;;;;;;43.83;21.17;;;2.60;99.90;;;;;;5012620;28;20048;-34
2022/03/19 04:14:36;;;;;;;51.80;23.80;;;2.70;99.90;;;;;;5012685;28;20032;-33
2022/03/19 04:17:04;;;;;;;49.30;22.05;;;2.70;99.90;;;;;;5009911;28;20120;-33
2022/03/19 04:19:30;;;;;;;42.65;21.10;;;2.70;99.90;;;;;;5013916;28;20053;-33
2022/03/19 04:21:56;;;;;;;41.88;21.77;;;2.70;99.90;;;;;;5015766;28;20033;-33
2022/03/19 04:24:21;;;;;;;51.50;22.95;;;2.60;99.90;;;;;;5012294;28;20167;-33
2022/03/19 04:26:47;;;;;;;43.30;20.30;;;2.60;99.90;;;;;;5011100;28;20034;-33
2022/03/19 04:29:13;;;;;;;49.17;23.08;;;2.50;99.90;;;;;;5015080;28;20471;-33
2022/03/19 04:31:38;;;;;;;45.10;20.95;;;2.70;99.90;;;;;;5012472;28;21979;-33
2022/03/19 04:34:04;;;;;;;49.08;22.10;;;2.70;99.90;;;;;;5012409;28;20033;-33
2022/03/19 04:36:30;;;;;;;48.88;22.88;;;2.70;99.90;;;;;;5014022;28;20033;-33
2022/03/19 04:38:57;;;;;;;43.70;21.17;;;2.70;99.90;;;;;;5014669;28;20169;-33
2022/03/19 04:41:23;;;;;;;47.30;21.58;;;2.80;99.90;;;;;;5016239;28;20094;-34
2022/03/19 04:43:48;;;;;;;46.42;22.08;;;2.70;99.90;;;;;;5015476;28;20040;-35
2022/03/19 04:46:15;;;;;;;45.53;21.95;;;2.70;99.90;;;;;;5013249;28;20123;-34
2022/03/19 04:48:42;;;;;;;44.55;21.27;;;2.60;99.90;;;;;;5016181;28;20380;-34
2022/03/19 04:51:08;;;;;;;45.95;20.58;;;2.60;99.90;;;;;;5014972;28;20029;-33
2022/03/19 04:53:34;;;;;;;48.47;21.33;;;2.60;99.90;;;;;;5014658;28;20083;-34
2022/03/19 04:56:00;;;;;;;40.85;20.20;;;2.60;99.90;;;;;;5014151;28;20025;-34
2022/03/19 04:58:26;;;;;;;42.85;21.58;;;2.60;99.90;;;;;;5010352;28;20453;-34
2022/03/19 05:00:51;;;;;;;46.00;22.63;;;2.50;99.90;;;;;;5013509;28;20033;-34
2022/03/19 05:03:17;;;;;;;38.75;19.65;;;2.60;99.90;;;;;;5014319;28;20029;-33
2022/03/19 05:05:42;;;;;;;47.97;21.60;;;2.50;99.90;;;;;;5016516;28;20034;-33
2022/03/19 05:08:08;;;;;;;41.40;20.13;;;2.40;99.90;;;;;;5010082;28;20034;-33
2022/03/19 05:13:18;;;;;;;39.80;19.67;;;2.40;99.90;;;;;;5010924;28;22314;-33
2022/03/19 05:15:44;;;;;;;46.60;21.95;;;2.40;99.90;;;;;;5011104;28;20033;-33
2022/03/19 05:18:10;;;;;;;41.38;21.13;;;2.30;99.90;;;;;;5008088;28;20576;-33
2022/03/19 05:20:35;;;;;;;42.83;20.27;;;2.20;99.90;;;;;;5011825;28;20037;-34
2022/03/19 05:23:02;;;;;;;46.03;22.45;;;2.20;99.90;;;;;;5012304;28;21593;-33
2022/03/19 05:25:28;;;;;;;43.40;20.63;;;2.20;99.90;;;;;;5012072;28;20022;-34
2022/03/19 05:27:53;;;;;;;48.25;20.73;;;2.20;99.90;;;;;;5014127;28;20034;-33
2022/03/19 05:30:19;;;;;;;45.75;21.55;;;2.10;99.90;;;;;;5013028;28;20099;-32
2022/03/19 05:32:45;;;;;;;46.47;22.17;;;2.00;99.90;;;;;;5011813;28;21950;-34
2022/03/19 05:35:10;;;;;;;45.75;21.35;;;2.00;99.90;;;;;;5014132;28;21056;-34
2022/03/19 05:37:36;;;;;;;42.13;21.35;;;2.00;99.90;;;;;;5013006;28;20037;-32
2022/03/19 05:40:05;;;;;;;44.53;19.17;;;2.10;99.90;;;;;;5020105;28;20044;-33
2022/03/19 05:42:31;;;;;;;41.28;20.65;;;2.00;99.90;;;;;;5022577;28;20029;-32
2022/03/19 05:44:57;;;;;;;36.97;21.33;;;2.00;99.90;;;;;;5015698;28;20597;-35
2022/03/19 05:47:23;;;;;;;49.33;21.70;;;2.10;99.90;;;;;;5014730;28;20099;-32
2022/03/19 05:49:49;;;;;;;44.53;22.00;;;2.00;99.90;;;;;;5015729;28;20033;-33
2022/03/19 05:52:16;;;;;;;51.70;25.23;;;2.00;99.90;;;;;;5014375;28;20038;-32
2022/03/19 05:54:42;;;;;;;51.83;23.52;;;1.90;99.90;;;;;;5015597;28;20426;-33
2022/03/19 05:57:08;;;;;;;48.85;21.17;;;2.00;99.90;;;;;;5014819;28;20543;-34
2022/03/19 05:59:34;;;;;;;48.30;20.60;;;1.80;99.90;;;;;;5015320;28;20033;-33
2022/03/19 06:02:00;;;;;;;47.28;21.33;;;1.90;99.90;;;;;;5014012;28;20037;-32
2022/03/19 06:04:25;;;;;;;42.22;20.17;;;1.90;99.90;;;;;;5014155;28;20136;-36
2022/03/19 06:06:51;;;;;;;47.70;21.63;;;1.70;99.90;;;;;;5013843;28;20033;-33
2022/03/19 06:09:16;;;;;;;39.53;20.15;;;1.60;99.90;;;;;;5015613;28;20021;-33
2022/03/19 06:11:44;;;;;;;45.78;21.27;;;1.50;99.90;;;;;;5014111;28;20123;-34
2022/03/19 06:14:09;;;;;;;56.90;22.70;;;1.50;99.90;;;;;;5014240;28;20029;-33
2022/03/19 06:16:35;;;;;;;43.65;20.85;;;1.50;99.90;;;;;;5015078;28;20604;-35
2022/03/19 06:19:01;;;;;;;42.65;21.95;;;1.60;99.90;;;;;;5010208;28;20088;-33
2022/03/19 06:21:26;;;;;;;43.15;20.98;;;1.60;99.90;;;;;;5018247;28;20030;-34
2022/03/19 06:23:53;;;;;;;53.17;23.92;;;1.80;99.90;;;;;;5014729;28;20446;-34
2022/03/19 06:26:23;;;;;;;44.90;20.55;;;1.80;99.90;;;;;;5012582;28;20079;-33
2022/03/19 06:28:49;;;;;;;49.67;23.25;;;2.00;99.90;;;;;;4991770;28;20028;-36
2022/03/19 06:31:15;;;;;;;48.35;21.98;;;2.20;99.90;;;;;;5012365;28;20037;-34
2022/03/19 06:33:42;;;;;;;47.13;20.83;;;2.30;99.90;;;;;;5012842;28;20064;-33
2022/03/19 06:38:53;;;;;;;44.78;21.25;;;2.60;99.90;;;;;;5016252;28;20304;-33
2022/03/19 06:41:21;;;;;;;43.33;20.85;;;2.60;99.90;;;;;;5014418;28;20499;-33
2022/03/19 06:43:47;;;;;;;44.33;22.00;;;2.70;99.90;;;;;;5015661;28;20029;-33
2022/03/19 06:46:13;;;;;;;40.75;21.08;;;2.80;99.90;;;;;;5018837;28;22154;-33
2022/03/19 06:48:39;;;;;;;39.00;20.10;;;2.80;99.90;;;;;;5015769;28;20029;-33
2022/03/19 06:51:05;;;;;;;48.20;20.67;;;2.90;99.90;;;;;;5017562;28;20026;-34
2022/03/19 06:53:30;;;;;;;43.22;21.88;;;2.90;99.90;;;;;;5018615;28;20501;-33
2022/03/19 06:55:56;;;;;;;46.35;22.40;;;3.00;99.90;;;;;;5014777;28;20037;-33
2022/03/19 06:58:21;;;;;;;42.92;21.42;;;3.10;99.90;;;;;;5017501;28;20106;-35
2022/03/19 07:00:48;;;;;;;45.25;22.27;;;3.10;99.90;;;;;;5016284;28;20033;-34
2022/03/19 07:03:14;;;;;;;47.70;22.55;;;3.20;99.90;;;;;;4995336;28;20017;-36
2022/03/19 07:05:39;;;;;;;42.28;21.65;;;3.30;99.90;;;;;;5017118;28;20045;-33
2022/03/19 07:08:08;;;;;;;45.83;21.00;;;3.40;99.90;;;;;;5016595;28;20545;-34
2022/03/19 07:10:37;;;;;;;37.05;19.77;;;3.50;99.90;;;;;;5015439;28;20032;-34
2022/03/19 07:13:03;;;;;;;43.00;21.52;;;3.60;99.90;;;;;;5017860;28;20505;-33
2022/03/19 07:15:29;;;;;;;47.53;21.58;;;3.70;99.90;;;;;;5017512;28;20055;-33
2022/03/19 07:18:02;;;;;;;45.10;22.27;;;3.70;99.90;;;;;;5017434;28;20783;-37
2022/03/19 07:20:29;;;;;;;41.75;19.92;;;3.80;99.90;;;;;;5018423;28;20040;-34
2022/03/19 07:23:02;;;;;;;43.78;21.83;;;4.00;99.90;;;;;;5013684;28;20729;-35
2022/03/19 07:25:34;;;;;;;38.92;21.33;;;4.00;99.90;;;;;;5013701;28;20080;-33
2022/03/19 07:28:07;;;;;;;42.40;21.35;;;4.10;99.90;;;;;;5015048;28;20029;-33
2022/03/19 07:30:33;;;;;;;41.78;20.98;;;4.10;99.90;;;;;;5011899;28;20033;-34
2022/03/19 07:33:00;;;;;;;43.60;20.42;;;4.20;99.90;;;;;;5016415;28;20048;-33
2022/03/19 07:35:26;;;;;;;42.40;20.00;;;4.30;99.90;;;;;;5016259;28;20546;-34
2022/03/19 07:37:53;;;;;;;44.15;21.83;;;4.40;99.90;;;;;;5014776;28;21356;-33
2022/03/19 07:43:08;;;;;;;42.80;20.70;;;4.60;99.90;;;;;;5018563;28;20172;-33
2022/03/19 07:45:38;;;;;;;41.08;20.00;;;4.60;99.90;;;;;;5017602;28;20048;-32
2022/03/19 07:48:05;;;;;;;38.65;20.60;;;4.60;99.90;;;;;;5012204;28;20021;-34
2022/03/19 07:50:31;;;;;;;32.50;18.27;;;4.80;99.90;;;;;;5016137;28;20029;-34
2022/03/19 07:52:56;;;;;;;41.47;20.52;;;4.90;99.90;;;;;;5015612;28;20044;-32
2022/03/19 07:55:23;;;;;;;39.97;20.27;;;4.80;99.90;;;;;;5017576;28;20033;-33
2022/03/19 07:57:50;;;;;;;43.22;22.10;;;4.90;99.90;;;;;;5014417;28;20389;-33
2022/03/19 08:00:16;;;;;;;40.53;20.25;;;5.00;99.90;;;;;;5015996;28;20033;-33
2022/03/19 08:02:42;;;;;;;42.08;22.10;;;4.90;99.90;;;;;;5013806;28;20610;-33
2022/03/19 08:05:09;;;;;;;42.20;21.33;;;5.10;99.90;;;;;;5017256;28;20057;-33
2022/03/19 08:07:37;;;;;;;36.42;19.45;;;5.10;99.90;;;;;;4997730;28;20063;-33
2022/03/19 08:10:04;;;;;;;40.33;20.30;;;5.20;99.80;;;;;;5014626;28;20131;-32
2022/03/19 08:12:30;;;;;;;39.95;19.25;;;5.10;99.90;;;;;;4995743;28;20288;-32
2022/03/19 08:14:56;;;;;;;41.95;20.50;;;5.20;99.60;;;;;;5014474;28;20167;-33
2022/03/19 08:17:22;;;;;;;39.58;19.02;;;5.30;99.50;;;;;;5013682;28;20025;-34
2022/03/19 08:19:48;;;;;;;45.35;20.15;;;5.40;99.90;;;;;;5010310;28;20075;-33
2022/03/19 08:22:14;;;;;;;33.88;19.42;;;5.70;98.50;;;;;;5012349;28;20119;-34
2022/03/19 08:24:40;;;;;;;45.65;21.15;;;5.80;98.90;;;;;;5015274;28;20080;-32
2022/03/19 08:27:05;;;;;;;36.35;17.77;;;5.80;97.80;;;;;;5015034;28;20060;-33
2022/03/19 08:29:31;;;;;;;39.45;19.00;;;5.70;97.70;;;;;;5010254;28;20487;-34
2022/03/19 08:31:57;;;;;;;35.38;18.65;;;5.80;97.10;;;;;;5012717;28;20052;-33
2022/03/19 08:34:24;;;;;;;38.83;18.20;;;5.80;97.90;;;;;;5015349;28;20388;-33
2022/03/19 08:36:52;;;;;;;32.90;18.02;;;5.90;98.90;;;;;;5014490;28;20429;-33
2022/03/19 08:42:02;;;;;;;41.85;19.23;;;6.20;96.40;;;;;;5012654;28;20045;-32
2022/03/19 08:44:28;;;;;;;37.35;19.25;;;6.20;95.90;;;;;;5013750;28;20041;-33
2022/03/19 08:46:53;;;;;;;34.63;18.48;;;6.30;98.80;;;;;;5015424;28;20486;-33
2022/03/19 08:49:20;;;;;;;36.13;20.70;;;6.20;93.40;;;;;;5015962;28;20037;-34
2022/03/19 08:51:45;;;;;;;37.22;19.23;;;6.40;96.50;;;;;;5016678;28;20108;-33
2022/03/19 08:54:11;;;;;;;38.67;18.80;;;6.40;92.50;;;;;;5015366;28;20477;-33
2022/03/19 08:56:37;;;;;;;40.65;18.67;;;6.60;95.80;;;;;;5014088;28;20022;-33
2022/03/19 08:59:04;;;;;;;39.47;18.75;;;6.70;96.50;;;;;;5015585;28;20064;-33
2022/03/19 09:01:30;;;;;;;34.75;18.38;;;6.70;94.90;;;;;;5013142;28;20109;-33
2022/03/19 09:03:55;;;;;;;35.42;18.08;;;6.70;92.70;;;;;;4994874;28;20445;-33
2022/03/19 09:06:21;;;;;;;34.97;18.27;;;6.80;91.60;;;;;;5013671;28;20029;-33
2022/03/19 09:08:50;;;;;;;37.30;19.20;;;6.80;95.30;;;;;;5013925;28;20494;-33
2022/03/19 09:11:18;;;;;;;37.00;18.85;;;6.90;92.00;;;;;;5013817;28;20059;-33
2022/03/19 09:13:49;;;;;;;39.30;19.85;;;6.90;91.20;;;;;;5010734;28;20518;-34
2022/03/19 09:16:15;;;;;;;34.60;18.83;;;7.00;91.90;;;;;;5016563;28;20037;-33
2022/03/19 09:18:41;;;;;;;35.15;18.58;;;7.10;87.10;;;;;;5012425;28;20084;-33
2022/03/19 09:21:07;;;;;;;33.60;17.15;;;7.10;90.20;;;;;;5012088;28;20108;-34
2022/03/19 09:23:32;;;;;;;29.92;16.95;;;7.20;89.40;;;;;;5013424;28;20051;-33
2022/03/19 09:25:58;;;;;;;29.52;17.33;;;7.40;81.60;;;;;;5013652;28;20037;-33
2022/03/19 09:28:24;;;;;;;31.52;17.42;;;7.30;81.60;;;;;;5011736;28;20044;-33
2022/03/19 09:30:51;;;;;;;32.53;16.65;;;7.60;83.20;;;;;;5010091;28;20029;-33
2022/03/19 09:33:17;;;;;;;30.42;18.00;;;7.60;78.40;;;;;;5009278;28;20495;-34
2022/03/19 09:35:43;;;;;;;28.92;15.50;;;7.50;68.50;;;;;;5012122;28;20037;-33
2022/03/19 09:38:08;;;;;;;32.28;18.60;;;7.60;78.30;;;;;;5013459;28;20037;-33
2022/03/19 09:40:34;;;;;;;31.50;16.75;;;7.60;67.00;;;;;;5010897;28;20116;-33
2022/03/19 09:42:59;;;;;;;29.88;15.48;;;7.60;71.60;;;;;;5011629;28;20033;-32
2022/03/19 09:45:27;;;;;;;27.17;15.35;;;7.70;69.10;;;;;;5012126;28;20030;-33
2022/03/19 09:47:54;;;;;;;28.95;15.10;;;7.90;67.00;;;;;;5012484;28;20120;-34
2022/03/19 09:50:21;;;;;;;24.45;14.75;;;7.80;64.90;;;;;;5012827;28;20406;-33
2022/03/19 09:52:51;;;;;;;24.35;15.23;;;7.80;60.70;;;;;;5020182;28;20037;-33
2022/03/19 09:55:18;;;;;;;30.27;17.38;;;7.70;66.10;;;;;;5023572;28;20068;-33
2022/03/19 09:57:44;;;;;;;29.73;16.10;;;7.80;62.00;;;;;;5021976;28;20060;-32
2022/03/19 10:00:11;;;;;;;30.25;16.50;;;7.80;67.80;;;;;;5017267;28;20069;-33
2022/03/19 10:03:05;;;;;;;28.98;16.42;;;8.20;66.80;;;;;;5014131;28;20041;-33
2022/03/19 10:11:11;;;;;;;28.95;15.85;;;8.00;67.50;;;;;;5014763;28;20036;-33
2022/03/19 10:13:48;;;;;;;27.85;15.93;;;8.10;63.50;;;;;;5017200;28;20057;-33
2022/03/19 10:16:28;;;;;;;28.75;15.18;;;8.20;65.70;;;;;;5016054;28;20036;-33
2022/03/19 10:19:02;;;;;;;24.52;15.55;;;8.30;68.20;;;;;;5017421;28;20147;-32
2022/03/19 10:21:29;;;;;;;27.38;15.75;;;8.30;60.00;;;;;;5014677;28;20068;-33
2022/03/19 10:23:59;;;;;;;29.73;16.17;;;8.30;63.40;;;;;;5017912;28;20553;-33
2022/03/19 10:26:25;;;;;;;31.88;17.83;;;8.20;59.60;;;;;;5015133;28;20736;-33
2022/03/19 10:29:03;;;;;;;28.77;15.40;;;8.30;62.10;;;;;;5016853;28;20025;-33
2022/03/19 10:31:31;;;;;;;28.45;16.83;;;8.40;61.20;;;;;;5015147;28;20473;-33
2022/03/19 10:33:57;;;;;;;28.63;16.65;;;8.50;61.60;;;;;;5013675;28;20030;-34
2022/03/19 10:36:33;;;;;;;30.70;18.27;;;8.40;58.70;;;;;;5014143;28;20032;-33
2022/03/19 10:39:00;;;;;;;31.42;17.40;;;8.30;57.20;;;;;;5015358;28;20490;-34
2022/03/19 10:41:27;;;;;;;30.27;15.35;;;8.30;60.30;;;;;;5016752;28;20517;-33
2022/03/19 10:43:53;;;;;;;26.15;14.65;;;8.40;59.20;;;;;;5015955;28;20064;-34
2022/03/19 10:46:19;;;;;;;33.60;17.83;;;8.50;62.10;;;;;;5017574;28;20406;-33
2022/03/19 10:48:50;;;;;;;27.63;16.58;;;8.60;58.80;;;;;;5013320;28;20439;-32
2022/03/19 10:51:17;;;;;;;26.85;14.40;;;8.70;58.40;;;;;;5013337;28;20136;-33
2022/03/19 10:53:42;;;;;;;27.50;15.63;;;8.70;59.10;;;;;;5019506;28;20033;-34
2022/03/19 10:56:09;;;;;;;28.85;16.48;;;8.70;56.60;;;;;;4998354;28;20690;-34
2022/03/19 10:58:35;;;;;;;26.77;14.00;;;8.70;56.40;;;;;;5016869;28;20017;-33
2022/03/19 11:01:02;;;;;;;28.65;16.13;;;8.70;59.20;;;;;;5016941;28;20036;-33
2022/03/19 11:03:30;;;;;;;30.98;16.27;;;8.70;55.20;;;;;;5016314;28;20052;-32
2022/03/19 11:06:06;;;;;;;28.05;16.08;;;8.70;57.40;;;;;;5016770;28;20104;-33
2022/03/19 11:08:38;;;;;;;29.27;15.68;;;8.60;58.60;;;;;;5015679;28;20056;-33
2022/03/19 11:11:10;;;;;;;25.88;15.45;;;8.70;60.30;;;;;;5015915;28;20029;-33
2022/03/19 11:13:42;;;;;;;31.15;15.75;;;8.90;57.10;;;;;;5015630;28;20025;-33
2022/03/19 11:16:10;;;;;;;29.75;17.05;;;8.80;56.70;;;;;;5016872;28;20148;-32
2022/03/19 11:18:37;;;;;;;31.55;16.48;;;8.90;54.20;;;;;;5013881;28;20523;-33
2022/03/19 11:21:03;;;;;;;24.63;13.43;;;9.00;56.40;;;;;;5014808;28;20133;-33
2022/03/19 11:23:39;;;;;;;24.02;13.07;;;9.10;52.10;;;;;;5015617;28;20031;-33
2022/03/19 11:26:06;;;;;;;20.20;12.07;;;9.00;52.80;;;;;;5013337;28;20124;-33
2022/03/19 11:28:34;;;;;;;17.85;8.27;;;9.10;55.20;;;;;;5014653;28;20022;-32
2022/03/19 11:31:03;;;;;;;18.33;9.35;;;9.00;54.60;;;;;;5012056;28;20022;-32
2022/03/19 11:33:33;;;;;;;22.58;10.82;;;9.20;57.10;;;;;;5012143;28;20030;-32
2022/03/19 11:35:59;;;;;;;23.30;12.60;;;9.20;55.00;;;;;;5015744;28;20033;-34
2022/03/19 11:38:25;;;;;;;21.90;11.65;;;9.00;53.10;;;;;;5013755;28;21287;-32
2022/03/19 11:40:56;;;;;;;19.75;11.02;;;9.20;50.70;;;;;;5013630;28;20071;-33
2022/03/19 11:43:24;;;;;;;20.23;13.13;;;9.20;50.70;;;;;;5010477;28;20436;-35
2022/03/19 11:46:00;;;;;;;21.17;12.18;;;9.30;51.90;;;;;;5013324;28;20060;-34
2022/03/19 11:48:35;;;;;;;21.27;12.27;;;9.20;54.70;;;;;;5012898;28;20033;-33
2022/03/19 11:51:18;;;;;;;24.80;13.40;;;9.20;48.10;;;;;;5016541;28;20037;-33
2022/03/19 11:54:02;;;;;;;23.45;13.05;;;9.20;47.50;;;;;;5017523;28;20056;-32
2022/03/19 11:56:48;;;;;;;24.85;13.85;;;9.10;48.50;;;;;;5014767;28;20029;-34
2022/03/19 11:59:16;;;;;;;22.20;13.07;;;9.00;48.50;;;;;;5016105;28;20022;-32
2022/03/19 12:01:49;;;;;;;25.95;13.40;;;9.30;53.50;;;;;;5016015;28;20037;-33
2022/03/19 12:04:17;;;;;;;20.67;12.35;;;9.40;50.50;;;;;;5015314;28;20035;-33
2022/03/19 12:06:53;;;;;;;20.77;10.93;;;9.50;50.00;;;;;;5012539;28;20038;-33
2022/03/19 12:09:29;;;;;;;21.85;11.45;;;9.40;46.50;;;;;;4991295;28;20148;-33
2022/03/19 12:12:11;;;;;;;19.33;11.13;;;9.60;46.30;;;;;;5014318;28;20514;-33
2022/03/19 12:14:36;;;;;;;21.52;12.15;;;9.30;46.10;;;;;;5006156;28;20067;-33
2022/03/19 12:17:16;;;;;;;14.05;7.82;;;9.40;46.30;;;;;;5011499;28;20033;-32
2022/03/19 12:19:59;;;;;;;20.27;11.18;;;9.50;49.50;;;;;;5012819;28;20439;-35
2022/03/19 12:22:26;;;;;;;20.02;9.98;;;9.40;47.30;;;;;;5010785;28;20037;-33
2022/03/19 12:25:00;;;;;;;21.17;11.88;;;9.40;45.30;;;;;;5012347;28;20128;-33
2022/03/19 12:27:26;;;;;;;14.77;9.13;;;9.30;46.60;;;;;;5011556;28;20041;-33
2022/03/19 12:29:52;;;;;;;25.98;12.65;;;9.40;48.00;;;;;;5010433;28;20371;-33
2022/03/19 12:32:22;;;;;;;17.73;12.02;;;9.40;43.50;;;;;;5007206;28;20483;-33
2022/03/19 12:35:00;;;;;;;18.17;11.88;;;9.30;44.90;;;;;;5009353;28;20505;-34
2022/03/19 12:37:26;;;;;;;20.13;10.90;;;9.50;46.40;;;;;;5013571;28;20108;-33
2022/03/19 12:40:01;;;;;;;25.33;13.38;;;9.60;45.40;;;;;;5015332;28;20037;-33
2022/03/19 12:42:33;;;;;;;24.15;10.82;;;9.60;45.70;;;;;;5015411;28;20055;-33
2022/03/19 12:45:03;;;;;;;18.25;11.30;;;9.60;48.10;;;;;;5008287;28;20033;-34
2022/03/19 12:47:29;;;;;;;21.50;12.35;;;9.70;44.00;;;;;;5009999;28;20033;-35
2022/03/19 12:49:55;;;;;;;23.63;12.93;;;9.60;44.10;;;;;;5013635;28;20033;-34
2022/03/19 12:52:21;;;;;;;24.60;13.20;;;9.60;45.50;;;;;;4996101;28;20018;-33
2022/03/19 12:54:50;;;;;;;21.30;12.68;;;9.80;47.30;;;;;;5018597;28;20041;-33
2022/03/19 12:57:24;;;;;;;18.33;11.45;;;10.00;51.40;;;;;;5014158;28;20029;-33